Terminal Aerodrome Forecast
Issued by NWS Upton, NY

Current Version | Previous Version | Text Only | Print | Product List | Glossary On
Versions: 1 2 3 4 5 6 7 8 9 10 11 12 13 14 15 16 17 18 19 20 21 22 23 24 25 26 27 28 29 30 31 32 33 34
000
FTUS41 KOKX 072111 AAB
TAFISP
TAF AMD
KISP 072111Z 0721/0818 19012KT P6SM FEW008 BKN035
      TEMPO 0721/0723 BKN005
     FM080100 21008KT 6SM BR FEW008 BKN250
     FM080600 22007KT 5SM BR FEW008 BKN250
     FM081400 26010KT P6SM SCT040 OVC100=

USA.gov is the U.S. government's official web portal to all federal, state and local government web resources and services.